AirNav   Pilot Hours Calculator
 
 1575 users online  

58NH Wallace Heliport
Danville, New Hampshire, USA

GOING TO DANVILLE?


FAA INFORMATION EFFECTIVE 02 JANUARY 2020

Location

FAA Identifier: 58NH
Lat/Long: 42-57-19.2000N 071-05-36.0000W
42-57.320000N 071-05.600000W
42.9553333,-71.0933333
(estimated)
Elevation: 135 ft. / 41 m (estimated)
From city: 3 miles NNE of DANVILLE, NH
Time zone: UTC -5 (UTC -4 during Daylight Saving Time)
Zip code: 03044

Heliport Operations

Heliport use: Private use. Permission required prior to landing
Activation date: 12/2015
Control tower: no
ARTCC: BOSTON CENTER
FSS: BANGOR FLIGHT SERVICE STATION
Attendance: UNATNDD
Wind indicator: yes
Segmented circle: no

Heliport Communications

WX ASOS at LWM (14 nm S): PHONE 978-687-8017
WX ASOS at MHT (15 nm W): 119.55 (603-621-1766)

Nearby radio navigation aids

VOR radial/distance  VOR name  Freq  Var
LWMr015/12.9LAWRENCE VOR/DME112.5015W
MHTr082/13.2MANCHESTER VOR/DME114.4015W
PSMr252/13.8PEASE VOR/DME116.5016W
CONr142/26.4CONCORD VOR/DME112.9015W
ENEr234/35.2KENNEBUNK VOR/DME117.1017W
BOSr009/36.2BOSTON VOR/DME112.7016W

 
NDB name  Hdg/Dist  Freq  Var  ID
ROLLINS232/19.726016WESG . ... --.

Heliport Services

Runway Information

Helipad H1

Dimensions: 33 x 33 ft. / 10 x 10 m
Surface: turf, in good condition
Traffic pattern: leftleft

Heliport Ownership and Management from official FAA records

Ownership: Privately-owned
Owner: JOHN SCOTT WALLACE
34 WYMANS LANDING
DANVILLE, NH 03819
Phone 603-702-1054
Manager: JOHN SCOTT WALLACE
34 WYMANS LANDING
DANVILLE, NH 03819
Phone 603-702-1054

Additional Remarks

PPR.
FOR CD CTC BOSTON APCH AT 603-594-5551.

Instrument Procedures

There are no published instrument procedures at 58NH.

Some nearby airports with instrument procedures:

KPSM - Portsmouth International Airport at Pease (14 nm NE)
KLWM - Lawrence Municipal Airport (14 nm S)
KMHT - Manchester Airport (15 nm W)
3B4 - Littlebrook Air Park (18 nm NE)
KDAW - Skyhaven Airport (21 nm N)
 
Loc | Ops | Rwys | IFR | FBO | Links
Com | Nav | Svcs | Stats | Notes
Aerial photo
No photo
 
Airport distance calculator
Flying to Wallace Heliport? Find the distance to fly.

From to 58NH

Sunrise and sunset
Times for 22-Jan-2020
 Local
(UTC-5)
 Zulu
(UTC)
Morning civil twilight06:3911:39
Sunrise07:1012:10
Sunset16:4321:43
Evening civil twilight17:1322:13

Current date and time
Zulu (UTC)  22-Jan-2020 21:32:57
Local (UTC-5)  22-Jan-2020 16:32:57
 
METAR
KPSM 
14nm NE 
222056Z 24004KT 10SM BKN250 01/M10 A3036 RMK AO2A SLP285 T00091103 55000
KLWM 
14nm S 
222054Z 26005KT 10SM CLR 01/M09 A3039 RMK AO2 SLP294 T00111089 55000
KMHT 
15nm W 
222053Z 00000KT 10SM FEW250 03/M09 A3035 RMK AO2 SLP298 T00281094 55003
KDAW 
21nm N 
222051Z AUTO 00000KT 10SM CLR 01/M09 A3035 RMK AO2 SLP280 T00061094 55002
KASH 
22nm SW 
222056Z 00000KT 10SM CLR 01/M09 A3038 RMK AO2 SLP296 T00111089 55001
KCON 
23nm NW 
222051Z AUTO 00000KT 10SM CLR 02/M09 A3035 RMK AO2 SLP283 T00171094 56004
KBVY 
24nm S 
222053Z 25004KT 10SM CLR 02/M09 A3038 RMK AO2 SLP285 T00171089 55001
TAF
KPSM 
14nm NE 
221720Z 2218/2318 23004KT P6SM SCT250
KMHT 
15nm W 
221720Z 2218/2318 VRB03KT P6SM SCT250
NOTAMs
Click for the latest NOTAMs
NOTAMs are issued by the DoD/FAA and will open in a separate window not controlled by AirNav.

 

 
 

Would you like to see your business listed on this page?

 If your business provides an interesting product or service to pilots, flight crews, aircraft, or users of the Wallace Heliport, you should consider listing it here.  To start the listing process, click on the button below
 
Add a business
 

Other Pages about Wallace Heliport

Update a link
 
Copyright © AirNav, LLC. All rights reserved. Privacy Policy  Contact